Thunder radar more information blitzortung!


Rain radar more information rain snow radar


altri nostri siti meteo:

PomeziameteoStazione ufficiale di Pomezia

MeteopomeziaSito sulle condizioni meteo



Nessuna attenzione particolare richiesta.    Non ci sono allerte meteo

Report METAR

   
LIMP - Parma
Dati ricevuti: 25-09-2017 14:50
Sereno  
Sereno  
   Vento: NE 16.7 km/h
Vento: NE 16.7 km/h
Temperatura: 21°C
P.to Rugiada: 11°C
Umidità: 53%
Barometro: 1019 hPa
Visibilità: oltre 10 km
dettagli cloud: Sereno
LIMP 251250Z 07009KT CAVOK 21/11 Q1019
LIPE - Bologna
Dati ricevuti: 25-09-2017 14:50
Parzialmente nuvoloso  
Parzialmente nuvoloso  
   Vento: Nord 13 km/h
Vento: Nord 13 km/h
Temperatura: 20°C
P.to Rugiada: 10°C
Umidità: 53%
Barometro: 1019 hPa
Nuvole: Parzialmente nuvoloso
Visibilità: oltre 10 km
dettagli cloud: Parzialmente nuvoloso 4000 ft
LIPE 251250Z 36007KT 330V050 9999 SCT040 20/10 Q1019
LIPO - Brescia/Montichi
Dati ricevuti: 25-09-2017 14:50
Molto nuvoloso  
Molto nuvoloso  
   Vento: Sud 11.1 km/h
Vento: Sud 11.1 km/h
Temperatura: 22°C
P.to Rugiada: 10°C
Umidità: 47%
Barometro: 1019 hPa
Nuvole: Molto nuvoloso
Visibilità: oltre 10 km
dettagli cloud: Molto nuvoloso 3000 ft
LIPO 251250Z 17006KT 9999 BKN030 22/10 Q1019
LIPF - Ferrara
Dati ricevuti: 25-09-2017 14:55
  
  
   Vento: calma
Vento: calma
Visibilità: 33 km
LIPF 251255Z 33003Z 9999 FEW030 21/14 Q1018
LIPL - Ghedi
Dati ricevuti: 25-09-2017 14:55
Parzialmente nuvoloso  
Parzialmente nuvoloso  
   Vento: Variabile calma
Vento: Variabile calma
Temperatura: 22°C
P.to Rugiada: 9°C
Umidità: 44%
Barometro: 1019 hPa
Nuvole: Parzialmente nuvoloso
Visibilità: oltre 10 km
dettagli cloud: Poche nuvole 3000 ft,
Parzialmente nuvoloso 3600 ft
LIPL 251255Z /////KT 9999 FEW030TCU SCT036 22/09 Q1019 RMK SCT VIS MIN 9999 WIND THR31 17005KT BLU
LIVC - Monte Cimone
Dati ricevuti: 25-09-2017 14:55
Nebbia, Molto nuvoloso  
Nebbia, Molto nuvoloso  
   Vento: Nord 14.8 km/h
Vento: Nord 14.8 km/h
Temperatura: 5°C
Temperatura Vento: 2°C
P.to Rugiada: 2°C
Umidità: 81%
Barometro: 1023 hPa
Nuvole: Molto nuvoloso
Visibilità: 2 km
dettagli cloud: Molto nuvoloso
LIVC 251255Z 36008KT 2000 BR BKN000 05/02 Q1023 RMK BKN MON INC VAL INVIS VIS MIN 2000
LIMS - Piacenza
Dati ricevuti: 25-09-2017 14:55
Poche nuvole  
Poche nuvole  
   Vento: SE 20.4 km/h
Vento: SE 20.4 km/h
Temperatura: 22°C
P.to Rugiada: 9°C
Umidità: 44%
Barometro: 1018 hPa
Nuvole: Poche nuvole
Visibilità: oltre 10 km
dettagli cloud: Poche nuvole 3000 ft
LIMS 251255Z 13011KT 9999 FEW030 22/09 Q1018
LIMT - Passo della Cisa
Dati ricevuti: 25-09-2017 10:55
DATI Obsoleti
Sereno  
Sereno  
   Vento: NO 7.4 km/h
Vento: NO 7.4 km/h
Temperatura: 12°C
P.to Rugiada: 9°C
Umidità: 82%
Barometro: 1020 hPa
Visibilità: oltre 10 km
dettagli cloud: Sereno
LIMT 250855Z 32004KT CAVOK 12/09 Q1020
LIPU - Padova
Dati ricevuti: 24-09-2017 14:58
DATI Obsoleti
Pioggia forte, Parzialmente nuvoloso  
Pioggia forte, Parzialmente nuvoloso  
   Vento: NE 16.7 km/h
Vento: NE 16.7 km/h
Temperatura: 19°C
P.to Rugiada: 16°C
Umidità: 83%
Barometro: 1018 hPa
Nuvole: Parzialmente nuvoloso
Visibilità: 9 km
dettagli cloud: Parzialmente nuvoloso 2500 ft,
Parzialmente nuvoloso 5000 ft
LIPU 241258Z 04009KT 9000 +RA SCT025 SCT050 19/16 Q1018

Script sviluppato da  Saratoga-weather.org Adattato per il modello da  Weerstation Leuven

Strumentazione usata:

Stazione meteo
Davis VP2

Programma gestore dati meteo
WVIEW

Server per i dati meteo
Pc-WDS5

Davis VP2

WVIEW

Pc-WDS5